createdAt,value
2022-08-10T00:01:37.700Z,65.90
2022-08-10T00:04:05.306Z,66.52
2022-08-10T00:06:32.539Z,66.26
2022-08-10T00:08:59.536Z,66.15
2022-08-10T00:11:26.702Z,66.21
2022-08-10T00:13:53.616Z,66.31
2022-08-10T00:16:20.524Z,66.58
2022-08-10T00:18:47.444Z,66.69
2022-08-10T00:21:14.343Z,66.99
2022-08-10T00:23:41.360Z,66.96
2022-08-10T00:26:08.246Z,67.34
2022-08-10T00:28:35.180Z,67.71
2022-08-10T00:31:02.185Z,67.97
2022-08-10T00:33:29.112Z,68.06
2022-08-10T00:35:56.008Z,67.91
2022-08-10T00:38:23.192Z,68.02
2022-08-10T00:40:50.320Z,68.37
2022-08-10T00:43:23.756Z,68.65
2022-08-10T00:45:59.773Z,68.47
2022-08-10T00:48:30.945Z,68.52
2022-08-10T00:51:01.853Z,68.86
2022-08-10T00:53:29.958Z,68.88
2022-08-10T00:57:14.168Z,68.89
2022-08-10T00:58:56.800Z,69.38
2022-08-10T01:02:10.045Z,69.65
2022-08-10T01:04:57.984Z,69.53
2022-08-10T01:07:18.310Z,69.82
2022-08-10T01:10:21.339Z,70.06
2022-08-10T01:13:07.037Z,70.20
2022-08-10T01:15:39.512Z,70.26
2022-08-10T01:18:17.279Z,70.26
2022-08-10T01:21:24.455Z,70.73
2022-08-10T01:24:29.490Z,70.81
2022-08-10T01:27:05.227Z,70.17
2022-08-10T01:29:35.080Z,70.58
2022-08-10T01:32:07.255Z,71.29
2022-08-10T01:35:10.691Z,71.02
2022-08-10T01:37:52.032Z,71.27
2022-08-10T01:40:25.887Z,71.50
2022-08-10T01:43:07.767Z,71.58
2022-08-10T01:45:44.533Z,71.68
2022-08-10T01:48:29.100Z,71.55
2022-08-10T01:51:07.032Z,71.80
2022-08-10T01:53:47.351Z,72.05
2022-08-10T01:56:16.993Z,71.59
2022-08-10T01:58:47.129Z,71.62
2022-08-10T02:01:39.612Z,72.21
2022-08-10T02:04:10.984Z,72.75
2022-08-10T02:06:43.356Z,72.44
2022-08-10T02:09:15.952Z,72.50
2022-08-10T02:12:05.818Z,72.39
2022-08-10T02:14:42.205Z,73.05
2022-08-10T02:17:59.291Z,73.16
2022-08-10T02:20:20.908Z,73.58
2022-08-10T02:22:53.472Z,73.47
2022-08-10T02:25:42.566Z,73.25
2022-08-10T02:28:11.381Z,73.28
2022-08-10T02:30:39.031Z,73.05
2022-08-10T02:33:06.775Z,73.38
2022-08-10T02:35:54.397Z,73.46
2022-08-10T02:38:58.124Z,73.47
2022-08-10T02:45:13.777Z,73.48
2022-08-10T02:45:15.406Z,73.21
2022-08-10T02:47:52.332Z,73.43
2022-08-10T02:50:51.361Z,74.12
2022-08-10T02:53:54.934Z,74.54
2022-08-10T02:56:43.716Z,74.94
2022-08-10T02:59:40.363Z,75.07
2022-08-10T03:02:13.977Z,74.88
2022-08-10T03:04:55.830Z,75.99
2022-08-10T03:07:43.416Z,76.49
2022-08-10T03:10:19.946Z,76.64
2022-08-10T03:12:52.373Z,76.98
2022-08-10T03:15:22.195Z,76.74
2022-08-10T03:17:57.813Z,76.95
2022-08-10T03:20:38.118Z,76.35
2022-08-10T03:23:18.313Z,76.14
2022-08-10T03:25:54.397Z,75.78
2022-08-10T03:28:26.223Z,75.75
2022-08-10T03:30:54.807Z,75.76
2022-08-10T03:33:23.552Z,76.05
2022-08-10T03:36:42.733Z,76.25
2022-08-10T03:38:40.907Z,76.57
2022-08-10T03:41:16.095Z,77.06
2022-08-10T03:43:48.085Z,77.41
2022-08-10T03:46:20.284Z,77.38
2022-08-10T03:48:50.380Z,77.66
2022-08-10T03:51:18.989Z,77.27
2022-08-10T03:54:06.042Z,77.14
2022-08-10T03:56:38.550Z,77.37
2022-08-10T03:59:12.535Z,77.25
2022-08-10T04:02:52.387Z,77.78
2022-08-10T04:04:28.961Z,78.65
2022-08-10T04:06:59.035Z,78.61
2022-08-10T04:09:43.404Z,78.91
2022-08-10T04:12:19.697Z,79.25
2022-08-10T04:14:50.419Z,80.10
2022-08-10T04:18:05.019Z,79.55
2022-08-10T04:20:17.580Z,79.47
2022-08-10T04:22:47.703Z,79.35
2022-08-10T04:25:15.658Z,79.13
2022-08-10T04:27:43.533Z,78.98
2022-08-10T04:30:11.076Z,78.69
2022-08-10T04:32:38.256Z,78.35
2022-08-10T04:35:07.596Z,78.69
2022-08-10T04:37:37.473Z,78.38
2022-08-10T04:40:30.437Z,79.83
2022-08-10T04:43:11.280Z,80.62
2022-08-10T04:45:48.328Z,80.13
2022-08-10T04:48:40.138Z,80.31
2022-08-10T04:51:18.511Z,79.58
2022-08-10T04:54:05.184Z,79.70
2022-08-10T04:56:36.593Z,80.36
2022-08-10T04:59:07.136Z,80.23
2022-08-10T05:02:21.263Z,80.88
2022-08-10T05:04:36.731Z,80.92
2022-08-10T05:07:11.123Z,80.64
2022-08-10T05:10:03.402Z,80.82
2022-08-10T05:12:30.862Z,80.82
2022-08-10T05:14:58.837Z,80.67
2022-08-10T05:17:26.334Z,80.46
2022-08-10T05:20:01.688Z,80.56
2022-08-10T05:22:32.955Z,80.56
2022-08-10T05:24:59.831Z,81.00
2022-08-10T05:27:26.696Z,80.78
2022-08-10T05:30:02.515Z,80.41
2022-08-10T05:32:32.374Z,80.97
2022-08-10T05:35:01.439Z,82.26
2022-08-10T05:38:10.374Z,81.45
2022-08-10T05:40:22.199Z,81.68
2022-08-10T05:42:49.337Z,82.13
2022-08-10T05:45:26.891Z,82.72
2022-08-10T05:48:55.362Z,82.26
2022-08-10T05:50:42.082Z,81.80
2022-08-10T05:53:23.134Z,81.73
2022-08-10T05:55:56.623Z,81.93
2022-08-10T05:58:23.630Z,81.42
2022-08-10T06:00:54.725Z,80.92
2022-08-10T06:03:28.620Z,81.13
2022-08-10T06:05:59.185Z,79.91
2022-08-10T06:08:31.747Z,80.39
2022-08-10T06:12:28.683Z,79.70
2022-08-10T06:14:13.857Z,78.96
2022-08-10T06:16:54.443Z,78.09
2022-08-10T06:19:21.906Z,76.66
2022-08-10T06:21:54.926Z,75.71
2022-08-10T06:24:31.158Z,72.75
2022-08-10T06:26:59.829Z,71.76
2022-08-10T06:29:30.039Z,70.36
2022-08-10T06:31:57.804Z,69.75
2022-08-10T06:34:28.926Z,68.45
2022-08-10T06:37:00.676Z,67.83
2022-08-10T06:39:34.827Z,66.27
2022-08-10T06:42:15.756Z,65.81
2022-08-10T06:45:06.579Z,64.19
2022-08-10T06:47:47.686Z,63.58
2022-08-10T06:50:56.395Z,63.66
2022-08-10T06:53:52.929Z,61.46
2022-08-10T06:56:37.442Z,59.94
2022-08-10T06:59:40.559Z,60.59
2022-08-10T07:02:16.245Z,57.86
2022-08-10T07:05:04.485Z,56.63
2022-08-10T07:07:37.708Z,56.79
2022-08-10T07:10:10.868Z,55.72
2022-08-10T07:12:40.109Z,54.93
2022-08-10T07:15:09.344Z,55.47
2022-08-10T07:17:39.431Z,53.98
2022-08-10T07:20:21.774Z,54.14
2022-08-10T07:23:26.984Z,54.05
2022-08-10T07:25:40.536Z,53.16
2022-08-10T07:28:08.635Z,53.12
2022-08-10T07:30:41.436Z,50.43
2022-08-10T07:33:09.975Z,50.59
2022-08-10T07:35:41.902Z,49.82
2022-08-10T07:38:17.279Z,50.04
2022-08-10T07:40:45.741Z,49.48
2022-08-10T07:43:13.894Z,48.97
2022-08-10T07:45:41.173Z,48.38
2022-08-10T07:48:16.092Z,48.24
2022-08-10T07:50:45.036Z,47.78
2022-08-10T07:53:19.691Z,47.08
2022-08-10T07:56:04.417Z,46.75
2022-08-10T07:58:52.082Z,46.02
2022-08-10T08:01:24.510Z,45.50
2022-08-10T08:04:10.840Z,45.38
2022-08-10T08:06:41.223Z,44.73
2022-08-10T08:09:09.703Z,45.35
2022-08-10T08:11:39.008Z,44.68
2022-08-10T08:14:09.422Z,44.38
2022-08-10T08:16:40.712Z,44.05
2022-08-10T08:24:09.604Z,43.93
2022-08-10T08:24:44.554Z,43.21
2022-08-10T08:27:16.881Z,43.04
2022-08-10T08:29:47.284Z,43.17
2022-08-10T08:32:22.326Z,42.68
2022-08-10T08:34:54.843Z,43.14
2022-08-10T08:38:31.551Z,42.55
2022-08-10T08:40:19.831Z,42.76
2022-08-10T08:43:40.323Z,42.36
2022-08-10T08:48:02.050Z,42.23
2022-08-10T08:50:59.558Z,42.24
2022-08-10T08:54:03.620Z,41.00
2022-08-10T08:56:59.999Z,40.20
2022-08-10T09:00:17.887Z,39.01
2022-08-10T09:02:55.747Z,40.18
2022-08-10T09:06:00.308Z,38.73
2022-08-10T09:09:15.646Z,39.20
2022-08-10T09:12:30.821Z,37.79
2022-08-10T09:15:08.527Z,37.33
2022-08-10T09:17:58.506Z,37.15
2022-08-10T09:20:40.829Z,36.54
2022-08-10T09:24:04.955Z,37.34
2022-08-10T09:26:23.860Z,37.32
2022-08-10T09:29:12.381Z,37.12
2022-08-10T09:31:55.904Z,37.59
2022-08-10T09:36:22.795Z,36.79
2022-08-10T09:38:21.898Z,36.99
2022-08-10T09:41:31.651Z,36.64
2022-08-10T09:44:27.244Z,36.50
2022-08-10T09:47:58.811Z,36.76
2022-08-10T09:51:22.677Z,35.98
2022-08-10T09:54:31.628Z,36.31
2022-08-10T09:57:44.016Z,35.91
2022-08-10T10:00:15.164Z,36.67
2022-08-10T10:03:36.528Z,35.94
2022-08-10T10:06:19.804Z,35.30
2022-08-10T10:09:10.059Z,35.62
2022-08-10T10:12:14.668Z,35.64
2022-08-10T10:15:24.843Z,35.47
2022-08-10T10:18:39.622Z,34.85
2022-08-10T10:21:56.061Z,34.38
2022-08-10T10:24:46.293Z,33.74
2022-08-10T10:27:48.068Z,34.16
2022-08-10T10:30:17.458Z,34.39
2022-08-10T10:33:08.663Z,34.07
2022-08-10T10:35:55.275Z,33.82
2022-08-10T10:38:29.343Z,33.90
2022-08-10T10:41:04.596Z,33.89
2022-08-10T10:43:54.149Z,33.18
2022-08-10T10:47:11.862Z,32.18
2022-08-10T10:49:55.129Z,32.70
2022-08-10T10:53:04.029Z,32.50
2022-08-10T10:56:15.155Z,33.23
2022-08-10T10:59:57.608Z,32.29
2022-08-10T11:03:01.861Z,32.79
2022-08-10T11:05:50.549Z,32.26
2022-08-10T11:08:29.235Z,31.44
2022-08-10T11:11:20.434Z,30.24
2022-08-10T11:14:29.540Z,30.92
2022-08-10T11:17:05.974Z,30.09
2022-08-10T11:20:06.082Z,29.95
2022-08-10T11:22:53.719Z,30.10
2022-08-10T11:25:37.499Z,30.18
2022-08-10T11:28:21.205Z,29.51
2022-08-10T11:31:16.002Z,28.88
2022-08-10T11:34:04.156Z,28.88
2022-08-10T11:37:30.335Z,28.94
2022-08-10T11:40:58.129Z,29.58
2022-08-10T11:43:46.943Z,29.83
2022-08-10T11:46:31.227Z,28.69
2022-08-10T11:49:18.536Z,29.07
2022-08-10T11:51:52.541Z,28.30
2022-08-10T11:54:51.673Z,28.78
2022-08-10T11:57:19.611Z,29.15
2022-08-10T11:59:57.968Z,29.19
2022-08-10T12:02:46.432Z,28.66
2022-08-10T12:05:51.559Z,27.95
2022-08-10T12:10:03.449Z,27.71
2022-08-10T12:11:09.704Z,27.88
2022-08-10T12:14:10.637Z,27.75
2022-08-10T12:16:41.353Z,27.36
2022-08-10T12:19:21.235Z,27.22
2022-08-10T12:22:06.287Z,27.66
2022-08-10T12:24:58.337Z,28.52
2022-08-10T12:27:51.074Z,28.30
2022-08-10T12:30:26.919Z,28.67
2022-08-10T12:33:08.035Z,28.21
2022-08-10T12:36:19.086Z,27.92
2022-08-10T12:39:05.411Z,27.50
2022-08-10T12:42:07.027Z,26.20
2022-08-10T12:44:48.874Z,26.84
2022-08-10T12:47:52.361Z,26.75
2022-08-10T12:50:56.584Z,26.87
2022-08-10T12:53:48.632Z,25.60
2022-08-10T12:56:26.658Z,25.80
2022-08-10T12:59:01.859Z,26.04
2022-08-10T13:02:07.837Z,25.53
2022-08-10T13:04:40.689Z,23.91
2022-08-10T13:07:09.500Z,24.24
2022-08-10T13:09:56.267Z,24.16
2022-08-10T13:12:35.580Z,24.07
2022-08-10T13:15:47.688Z,24.22
2022-08-10T13:18:02.020Z,24.56
2022-08-10T13:20:34.908Z,24.48
2022-08-10T13:23:02.957Z,24.31
2022-08-10T13:26:25.555Z,23.86
2022-08-10T13:28:56.199Z,24.20
2022-08-10T13:32:04.370Z,24.21
2022-08-10T13:35:39.504Z,23.56
2022-08-10T13:38:09.827Z,23.02
2022-08-10T13:40:38.715Z,23.31
2022-08-10T13:45:49.996Z,23.96
2022-08-10T13:48:24.482Z,24.07
2022-08-10T13:50:57.463Z,23.95
2022-08-10T13:53:31.385Z,23.90
2022-08-10T13:55:59.863Z,23.68
2022-08-10T13:58:37.174Z,22.85
2022-08-10T14:01:18.502Z,22.97
2022-08-10T14:03:47.235Z,22.57
2022-08-10T14:06:16.290Z,22.32
2022-08-10T14:08:52.418Z,22.42
2022-08-10T14:11:21.591Z,22.42
2022-08-10T14:13:59.517Z,22.31
2022-08-10T14:16:26.957Z,21.27
2022-08-10T14:18:58.267Z,20.66
2022-08-10T14:21:25.530Z,21.14
2022-08-10T14:23:53.792Z,21.25
2022-08-10T14:26:28.959Z,20.82
2022-08-10T14:29:07.271Z,21.24
2022-08-10T14:31:37.248Z,21.22
2022-08-10T14:34:09.071Z,21.27
2022-08-10T14:37:03.787Z,20.91
2022-08-10T14:40:02.184Z,20.40
2022-08-10T14:42:37.652Z,19.56
2022-08-10T14:45:44.063Z,18.55
2022-08-10T14:48:21.288Z,18.43
2022-08-10T14:50:55.291Z,18.81
2022-08-10T14:53:26.652Z,19.18
2022-08-10T14:56:00.802Z,18.62
2022-08-10T14:58:59.071Z,17.76
2022-08-10T15:02:01.014Z,18.22
2022-08-10T15:04:23.831Z,18.87
2022-08-10T15:07:02.624Z,19.49
2022-08-10T15:09:59.248Z,19.15
2022-08-10T15:12:26.522Z,19.27
2022-08-10T15:14:55.490Z,19.57
2022-08-10T15:17:35.071Z,20.13
2022-08-10T15:20:14.911Z,19.34
2022-08-10T15:22:50.253Z,19.19
2022-08-10T15:25:24.991Z,19.23
2022-08-10T15:28:13.580Z,21.01
2022-08-10T15:30:48.690Z,20.59
2022-08-10T15:34:03.686Z,19.99
2022-08-10T15:37:36.930Z,20.09
2022-08-10T15:40:24.761Z,19.32
2022-08-10T15:42:53.059Z,20.26
2022-08-10T15:45:20.173Z,20.28
2022-08-10T15:48:03.233Z,21.46
2022-08-10T15:50:58.792Z,21.72
2022-08-10T15:53:49.909Z,23.16
2022-08-10T15:56:28.945Z,23.10
2022-08-10T15:59:12.351Z,23.66
2022-08-10T16:02:12.566Z,23.39
2022-08-10T16:04:56.204Z,23.87
2022-08-10T16:07:42.865Z,24.14
2022-08-10T16:10:28.022Z,24.29
2022-08-10T16:13:50.684Z,24.52
2022-08-10T16:15:57.272Z,24.94
2022-08-10T16:18:30.301Z,24.92
2022-08-10T16:21:01.405Z,25.07
2022-08-10T16:23:42.901Z,25.43
2022-08-10T16:26:17.444Z,25.05
2022-08-10T16:28:51.370Z,25.36
2022-08-10T16:31:22.822Z,24.81
2022-08-10T16:33:54.911Z,25.07
2022-08-10T16:36:31.614Z,25.62
2022-08-10T16:38:59.930Z,25.73
2022-08-10T16:42:02.793Z,26.06
2022-08-10T16:44:21.083Z,26.67
2022-08-10T16:46:48.808Z,26.67
2022-08-10T16:49:18.228Z,26.11
2022-08-10T16:51:49.342Z,27.30
2022-08-10T16:54:27.092Z,27.04
2022-08-10T16:57:05.306Z,27.51
2022-08-10T16:59:38.521Z,27.13
2022-08-10T17:02:06.970Z,26.83
2022-08-10T17:04:36.525Z,27.18
2022-08-10T17:07:14.368Z,27.04
2022-08-10T17:09:48.475Z,27.64
2022-08-10T17:12:23.301Z,27.22
2022-08-10T17:15:09.405Z,27.21
2022-08-10T17:17:46.829Z,27.66
2022-08-10T17:20:31.541Z,27.37
2022-08-10T17:23:04.969Z,27.15
2022-08-10T17:25:51.007Z,27.36
2022-08-10T17:28:34.853Z,27.93
2022-08-10T17:31:42.218Z,27.48
2022-08-10T17:34:16.338Z,27.69
2022-08-10T17:36:50.331Z,27.60
2022-08-10T17:39:22.893Z,27.80
2022-08-10T17:41:52.654Z,27.52
2022-08-10T17:44:20.093Z,27.48
2022-08-10T17:46:47.292Z,27.93
2022-08-10T17:49:16.589Z,27.58
2022-08-10T17:51:53.898Z,28.65
2022-08-10T17:54:41.421Z,28.05
2022-08-10T17:57:21.237Z,28.59
2022-08-10T17:59:51.781Z,28.40
2022-08-10T18:02:25.457Z,28.54
2022-08-10T18:04:56.788Z,29.21
2022-08-10T18:07:39.228Z,28.88
2022-08-10T18:10:10.162Z,29.08
2022-08-10T18:12:45.634Z,29.05
2022-08-10T18:15:17.243Z,28.93
2022-08-10T18:17:51.048Z,29.17
2022-08-10T18:20:28.128Z,28.81
2022-08-10T18:22:57.521Z,30.80
2022-08-10T18:25:30.455Z,31.43
2022-08-10T18:28:03.911Z,31.86
2022-08-10T18:30:37.304Z,32.35
2022-08-10T18:33:09.883Z,32.90
2022-08-10T18:35:38.788Z,32.58
2022-08-10T18:38:07.295Z,33.29
2022-08-10T18:40:37.103Z,33.28
2022-08-10T18:44:05.494Z,34.16
2022-08-10T18:45:58.937Z,34.47
2022-08-10T18:48:40.870Z,34.93
2022-08-10T18:51:09.955Z,35.19
2022-08-10T18:53:48.544Z,35.95
2022-08-10T18:56:29.086Z,36.41
2022-08-10T19:00:03.537Z,36.20
2022-08-10T19:02:48.706Z,36.93
2022-08-10T19:05:33.409Z,37.10
2022-08-10T19:08:31.611Z,37.39
2022-08-10T19:11:07.493Z,37.42
2022-08-10T19:14:15.202Z,38.22
2022-08-10T19:16:54.918Z,39.11
2022-08-10T19:19:55.679Z,39.52
2022-08-10T19:22:37.666Z,40.44
2022-08-10T19:25:12.028Z,41.03
2022-08-10T19:28:04.279Z,41.51
2022-08-10T19:30:56.276Z,42.64
2022-08-10T19:33:50.524Z,42.79
2022-08-10T19:36:45.308Z,43.03
2022-08-10T19:39:51.093Z,43.68
2022-08-10T19:42:49.649Z,44.02
2022-08-10T19:46:00.615Z,44.73
2022-08-10T19:48:30.199Z,45.15
2022-08-10T19:51:08.646Z,46.23
2022-08-10T19:54:06.700Z,46.83
2022-08-10T19:56:44.276Z,46.59
2022-08-10T20:00:18.042Z,46.74
2022-08-10T20:02:30.672Z,46.97
2022-08-10T20:05:11.489Z,47.22
2022-08-10T20:08:19.819Z,47.73
2022-08-10T20:11:44.798Z,48.66
2022-08-10T20:14:30.070Z,49.09
2022-08-10T20:17:51.470Z,49.51
2022-08-10T20:20:31.363Z,49.15
2022-08-10T20:23:25.378Z,49.51
2022-08-10T20:25:56.569Z,49.92
2022-08-10T20:28:42.693Z,49.99
2022-08-10T20:31:43.925Z,50.22
2022-08-10T20:34:44.158Z,50.95
2022-08-10T20:38:27.496Z,51.88
2022-08-10T20:41:46.174Z,52.50
2022-08-10T20:44:24.194Z,53.09
2022-08-10T20:47:03.234Z,53.16
2022-08-10T20:50:08.037Z,53.37
2022-08-10T20:52:36.648Z,53.34
2022-08-10T20:55:08.999Z,53.83
2022-08-10T20:57:57.452Z,53.99
2022-08-10T21:00:48.571Z,53.53
2022-08-10T21:03:43.878Z,53.42
2022-08-10T21:06:49.173Z,53.48
2022-08-10T21:09:39.557Z,53.70
2022-08-10T21:12:24.093Z,54.75
2022-08-10T21:15:12.222Z,55.07
2022-08-10T21:18:22.348Z,54.92
2022-08-10T21:21:09.698Z,55.17
2022-08-10T21:23:48.730Z,54.83
2022-08-10T21:26:29.806Z,54.87
2022-08-10T21:28:59.441Z,55.29
2022-08-10T21:32:16.931Z,55.95
2022-08-10T21:35:36.634Z,56.09
2022-08-10T21:38:26.790Z,55.99
2022-08-10T21:41:17.192Z,55.92
2022-08-10T21:44:20.647Z,56.01
2022-08-10T21:48:06.515Z,56.26
2022-08-10T21:51:16.374Z,57.47
2022-08-10T21:54:22.533Z,57.67
2022-08-10T21:57:41.267Z,57.95
2022-08-10T22:00:33.371Z,58.19
2022-08-10T22:03:22.739Z,58.68
2022-08-10T22:06:12.226Z,58.58
2022-08-10T22:09:16.656Z,59.11
2022-08-10T22:12:10.241Z,59.46
2022-08-10T22:15:11.946Z,59.11
2022-08-10T22:18:05.918Z,59.29
2022-08-10T22:20:56.393Z,59.66
2022-08-10T22:23:41.753Z,59.75
2022-08-10T22:27:46.352Z,59.64
2022-08-10T22:30:23.144Z,59.64
2022-08-10T22:34:00.186Z,60.05
2022-08-10T22:37:16.662Z,59.67
2022-08-10T22:40:22.491Z,59.81
2022-08-10T22:43:13.181Z,59.56
2022-08-10T22:46:17.829Z,59.75
2022-08-10T22:49:00.440Z,59.95
2022-08-10T22:51:49.109Z,60.12
2022-08-10T22:54:52.215Z,60.06
2022-08-10T22:57:38.599Z,60.24
2022-08-10T23:00:31.247Z,60.62
2022-08-10T23:03:11.114Z,60.80
2022-08-10T23:06:11.509Z,61.29
2022-08-10T23:08:47.421Z,62.12
2022-08-10T23:11:30.124Z,61.72
2022-08-10T23:14:18.653Z,61.50
2022-08-10T23:17:11.837Z,61.80
2022-08-10T23:19:45.092Z,62.08
2022-08-10T23:22:15.437Z,62.70
2022-08-10T23:24:53.537Z,62.46
2022-08-10T23:27:38.055Z,62.49
2022-08-10T23:30:16.961Z,62.30
2022-08-10T23:32:48.305Z,61.98
2022-08-10T23:36:05.680Z,62.00
2022-08-10T23:38:08.663Z,62.18
2022-08-10T23:40:36.744Z,62.49
2022-08-10T23:43:05.225Z,62.57
2022-08-10T23:45:53.833Z,62.56
2022-08-10T23:48:25.509Z,63.12
2022-08-10T23:50:59.452Z,63.05
2022-08-10T23:53:31.812Z,63.25
2022-08-10T23:56:24.016Z,63.91
2022-08-10T23:58:55.763Z,63.85
